createdAt,value
2023-01-05T00:00:32.971Z,101490.69
2023-01-05T00:03:03.142Z,101491.84
2023-01-05T00:05:33.144Z,101493.84
2023-01-05T00:08:03.623Z,101497.78
2023-01-05T00:10:50.661Z,101492.50
2023-01-05T00:13:37.586Z,101491.19
2023-01-05T00:16:41.226Z,101495.13
2023-01-05T00:19:30.900Z,101495.47
2023-01-05T00:22:17.933Z,101493.00
2023-01-05T00:24:47.925Z,101494.16
2023-01-05T00:27:18.389Z,101492.16
2023-01-05T00:29:49.010Z,101491.34
2023-01-05T00:32:21.458Z,101489.69
2023-01-05T00:34:54.649Z,101491.66
2023-01-05T00:37:26.643Z,101490.34
2023-01-05T00:39:57.254Z,101497.06
2023-01-05T00:42:28.189Z,101495.41
2023-01-05T00:44:58.588Z,101498.22
2023-01-05T00:47:31.275Z,101502.84
2023-01-05T00:50:01.150Z,101504.31
2023-01-05T00:52:31.917Z,101500.16
2023-01-05T00:55:02.511Z,101503.31
2023-01-05T00:57:33.583Z,101505.09
2023-01-05T01:00:04.440Z,101500.13
2023-01-05T01:02:36.923Z,101497.97
2023-01-05T01:05:09.349Z,101505.34
2023-01-05T01:07:40.064Z,101500.44
2023-01-05T01:10:13.629Z,101497.94
2023-01-05T01:12:44.123Z,101505.81
2023-01-05T01:15:14.498Z,101505.00
2023-01-05T01:17:47.060Z,101505.00
2023-01-05T01:20:17.501Z,101504.19
2023-01-05T01:22:47.910Z,101493.63
2023-01-05T01:25:18.101Z,101490.66
2023-01-05T01:27:48.115Z,101490.16
2023-01-05T01:30:18.664Z,101486.84
2023-01-05T01:32:51.218Z,101490.00
2023-01-05T01:35:20.964Z,101479.94
2023-01-05T01:37:51.379Z,101492.78
2023-01-05T01:40:21.618Z,101487.19
2023-01-05T01:42:51.794Z,101496.38
2023-01-05T01:45:24.746Z,101483.25
2023-01-05T01:48:01.171Z,101473.22
2023-01-05T01:50:36.734Z,101479.94
2023-01-05T01:53:10.582Z,101471.91
2023-01-05T01:55:42.603Z,101465.78
2023-01-05T01:58:19.168Z,101478.13
2023-01-05T02:00:50.012Z,101465.63
2023-01-05T02:03:22.851Z,101465.28
2023-01-05T02:05:53.228Z,101460.50
2023-01-05T02:08:31.877Z,101460.50
2023-01-05T02:11:30.525Z,101471.69
2023-01-05T02:14:28.916Z,101458.03
2023-01-05T02:17:18.266Z,101457.53
2023-01-05T02:20:33.195Z,101464.28
2023-01-05T02:23:56.088Z,101464.59
2023-01-05T02:27:26.219Z,101464.94
2023-01-05T02:31:02.349Z,101475.28
2023-01-05T02:33:55.431Z,101473.31
2023-01-05T02:36:32.377Z,101476.94
2023-01-05T02:39:10.949Z,101476.59
2023-01-05T02:41:50.923Z,101471.00
2023-01-05T02:44:22.401Z,101485.81
2023-01-05T02:47:04.736Z,101481.03
2023-01-05T02:49:42.764Z,101475.78
2023-01-05T02:52:15.378Z,101471.00
2023-01-05T02:54:51.469Z,101480.56
2023-01-05T02:57:47.511Z,101482.53
2023-01-05T03:00:24.901Z,101475.28
2023-01-05T03:03:03.355Z,101466.88
2023-01-05T03:05:40.502Z,101478.06
2023-01-05T03:08:26.295Z,101479.22
2023-01-05T03:11:19.985Z,101490.38
2023-01-05T03:13:58.248Z,101485.13
2023-01-05T03:16:36.702Z,101499.91
2023-01-05T03:19:30.519Z,101496.81
2023-01-05T03:22:24.796Z,101504.38
2023-01-05T03:25:11.755Z,101503.56
2023-01-05T03:28:00.212Z,101504.38
2023-01-05T03:30:59.572Z,101517.53
2023-01-05T03:34:01.767Z,101516.69
2023-01-05T03:36:39.733Z,101520.44
2023-01-05T03:39:16.510Z,101522.44
2023-01-05T03:41:47.368Z,101526.38
2023-01-05T03:44:17.310Z,101523.25
2023-01-05T03:46:48.135Z,101534.13
2023-01-05T03:49:23.682Z,101528.19
2023-01-05T03:51:54.117Z,101533.78
2023-01-05T03:54:26.539Z,101531.84
2023-01-05T03:56:57.027Z,101535.13
2023-01-05T03:59:27.451Z,101541.22
2023-01-05T04:01:58.223Z,101539.25
2023-01-05T04:04:28.793Z,101541.72
2023-01-05T04:06:59.323Z,101544.19
2023-01-05T04:09:31.285Z,101548.34
2023-01-05T04:12:01.673Z,101545.53
2023-01-05T04:14:34.061Z,101549.97
2023-01-05T04:17:07.019Z,101551.13
2023-01-05T04:19:37.535Z,101553.94
2023-01-05T04:22:07.636Z,101556.72
2023-01-05T04:24:40.343Z,101555.06
2023-01-05T04:27:10.671Z,101557.34
2023-01-05T04:29:40.786Z,101557.66
2023-01-05T04:32:11.006Z,101559.97
2023-01-05T04:34:41.536Z,101556.34
2023-01-05T04:37:12.176Z,101557.97
2023-01-05T04:39:44.529Z,101557.16
2023-01-05T04:42:14.459Z,101562.75
2023-01-05T04:44:44.869Z,101562.75
2023-01-05T04:47:15.277Z,101564.41
2023-01-05T04:49:45.049Z,101566.88
2023-01-05T04:52:15.423Z,101566.03
2023-01-05T04:54:47.565Z,101568.84
2023-01-05T04:57:18.991Z,101573.09
2023-01-05T04:59:49.646Z,101576.41
2023-01-05T05:02:20.550Z,101572.81
2023-01-05T05:04:51.033Z,101570.31
2023-01-05T05:07:21.487Z,101578.69
2023-01-05T05:09:53.952Z,101574.25
2023-01-05T05:12:24.091Z,101577.03
2023-01-05T05:14:54.598Z,101571.78
2023-01-05T05:17:25.121Z,101569.31
2023-01-05T05:19:55.530Z,101577.38
2023-01-05T05:22:26.682Z,101578.19
2023-01-05T05:24:59.360Z,101580.16
2023-01-05T05:27:30.350Z,101576.56
2023-01-05T05:30:00.668Z,101586.56
2023-01-05T05:32:30.892Z,101579.34
2023-01-05T05:35:01.285Z,101588.22
2023-01-05T05:37:31.000Z,101588.22
2023-01-05T05:40:03.418Z,101590.72
2023-01-05T05:42:33.992Z,101585.13
2023-01-05T05:45:04.540Z,101586.78
2023-01-05T05:47:35.280Z,101581.19
2023-01-05T05:50:05.957Z,101578.38
2023-01-05T05:52:35.691Z,101594.84
2023-01-05T05:55:10.314Z,101589.75
2023-01-05T05:57:40.623Z,101593.88
2023-01-05T06:00:12.363Z,101607.84
2023-01-05T06:02:43.494Z,101598.31
2023-01-05T06:05:13.825Z,101610.03
2023-01-05T06:07:44.261Z,101608.88
2023-01-05T06:10:17.482Z,101614.13
2023-01-05T06:12:47.759Z,101617.13
2023-01-05T06:15:18.474Z,101622.06
2023-01-05T06:17:49.733Z,101610.94
2023-01-05T06:20:20.397Z,101611.16
2023-01-05T06:22:50.206Z,101616.56
2023-01-05T06:25:22.670Z,101618.47
2023-01-05T06:27:53.358Z,101615.22
2023-01-05T06:30:24.205Z,101621.94
2023-01-05T06:32:54.817Z,101625.75
2023-01-05T06:35:25.906Z,101623.78
2023-01-05T06:37:55.967Z,101625.41
2023-01-05T06:40:28.160Z,101627.00
2023-01-05T06:42:58.803Z,101629.41
2023-01-05T06:45:29.442Z,101628.66
2023-01-05T06:47:59.810Z,101622.88
2023-01-05T06:50:30.850Z,101628.22
2023-01-05T06:53:01.527Z,101632.34
2023-01-05T06:55:34.249Z,101634.31
2023-01-05T06:58:04.005Z,101630.56
2023-01-05T07:00:34.696Z,101637.69
2023-01-05T07:03:05.039Z,101632.00
2023-01-05T07:05:35.997Z,101636.41
2023-01-05T07:08:05.975Z,101634.00
2023-01-05T07:10:38.009Z,101639.16
2023-01-05T07:13:07.633Z,101634.59
2023-01-05T07:15:37.648Z,101639.75
2023-01-05T07:18:08.041Z,101631.16
2023-01-05T07:20:38.869Z,101633.31
2023-01-05T07:23:09.502Z,101635.88
2023-01-05T07:25:41.849Z,101627.09
2023-01-05T07:28:12.400Z,101630.06
2023-01-05T07:30:42.917Z,101633.03
2023-01-05T07:33:13.367Z,101639.25
2023-01-05T07:35:43.835Z,101631.16
2023-01-05T07:38:13.591Z,101638.41
2023-01-05T07:40:46.351Z,101628.69
2023-01-05T07:43:16.963Z,101633.50
2023-01-05T07:45:47.109Z,101624.88
2023-01-05T07:48:23.224Z,101621.94
2023-01-05T07:50:54.125Z,101628.31
2023-01-05T07:53:26.151Z,101620.13
2023-01-05T07:56:05.719Z,101626.84
2023-01-05T07:58:36.288Z,101619.16
2023-01-05T08:01:08.671Z,101617.75
2023-01-05T08:03:39.527Z,101608.22
2023-01-05T08:06:13.003Z,101604.94
2023-01-05T08:08:43.812Z,101607.91
2023-01-05T08:11:20.258Z,101595.69
2023-01-05T08:14:03.214Z,101596.06
2023-01-05T08:16:35.957Z,101594.50
2023-01-05T08:19:10.887Z,101605.84
2023-01-05T08:21:41.923Z,101592.56
2023-01-05T08:24:12.237Z,101592.22
2023-01-05T08:26:43.738Z,101596.72
2023-01-05T08:29:14.198Z,101584.91
2023-01-05T08:31:44.864Z,101588.41
2023-01-05T08:34:15.179Z,101584.66
2023-01-05T08:36:45.745Z,101580.91
2023-01-05T08:39:16.131Z,101573.41
2023-01-05T08:41:50.395Z,101580.47
2023-01-05T08:44:20.964Z,101581.88
2023-01-05T08:46:51.654Z,101576.41
2023-01-05T08:49:22.653Z,101564.38
2023-01-05T08:51:53.162Z,101561.69
2023-01-05T08:54:23.735Z,101558.50
2023-01-05T08:56:57.427Z,101546.22
2023-01-05T08:59:29.046Z,101561.53
2023-01-05T09:02:00.077Z,101552.41
2023-01-05T09:04:30.704Z,101542.47
2023-01-05T09:07:01.332Z,101547.19
2023-01-05T09:09:31.810Z,101549.00
2023-01-05T09:12:03.118Z,101540.56
2023-01-05T09:14:35.300Z,101540.31
2023-01-05T09:17:08.048Z,101539.66
2023-01-05T09:19:40.257Z,101534.16
2023-01-05T09:22:10.736Z,101531.91
2023-01-05T09:24:41.218Z,101538.13
2023-01-05T09:27:13.161Z,101529.47
2023-01-05T09:29:43.310Z,101528.16
2023-01-05T09:32:13.815Z,101525.19
2023-01-05T09:34:45.429Z,101522.69
2023-01-05T09:37:15.649Z,101526.22
2023-01-05T09:39:46.069Z,101522.06
2023-01-05T09:42:23.892Z,101515.91
2023-01-05T09:45:02.412Z,101504.84
2023-01-05T09:47:39.901Z,101508.03
2023-01-05T09:50:20.637Z,101503.81
2023-01-05T09:52:55.146Z,101496.75
2023-01-05T09:55:31.269Z,101495.00
2023-01-05T09:58:13.046Z,101498.91
2023-01-05T10:00:54.383Z,101488.66
2023-01-05T10:04:02.433Z,101491.69
2023-01-05T10:06:20.226Z,101492.72
2023-01-05T10:08:54.351Z,101485.28
2023-01-05T10:11:53.206Z,101487.91
2023-01-05T10:14:35.689Z,101475.94
2023-01-05T10:17:39.848Z,101472.88
2023-01-05T10:20:00.311Z,101470.56
2023-01-05T10:22:46.108Z,101463.50
2023-01-05T10:25:26.824Z,101465.34
2023-01-05T10:28:11.011Z,101469.22
2023-01-05T10:31:00.123Z,101468.22
2023-01-05T10:33:56.750Z,101455.97
2023-01-05T10:37:09.674Z,101450.09
2023-01-05T10:40:05.656Z,101457.97
2023-01-05T10:42:50.345Z,101461.84
2023-01-05T10:45:22.410Z,101456.03
2023-01-05T10:47:54.560Z,101455.03
2023-01-05T10:50:38.468Z,101444.75
2023-01-05T10:53:15.659Z,101448.97
2023-01-05T10:55:57.239Z,101449.16
2023-01-05T10:58:30.799Z,101446.13
2023-01-05T11:01:07.250Z,101443.59
2023-01-05T11:04:25.222Z,101434.13
2023-01-05T11:06:38.860Z,101445.63
2023-01-05T11:09:22.647Z,101438.59
2023-01-05T11:11:59.190Z,101448.53
2023-01-05T11:14:35.319Z,101441.16
2023-01-05T11:17:09.419Z,101446.69
2023-01-05T11:19:54.153Z,101444.13
2023-01-05T11:22:36.344Z,101445.69
2023-01-05T11:25:29.926Z,101441.91
2023-01-05T11:28:16.788Z,101446.66
2023-01-05T11:31:02.465Z,101451.38
2023-01-05T11:33:40.344Z,101455.28
2023-01-05T11:36:17.413Z,101448.69
2023-01-05T11:38:55.185Z,101440.16
2023-01-05T11:41:27.041Z,101448.50
2023-01-05T11:44:01.367Z,101452.88
2023-01-05T11:46:45.368Z,101451.94
2023-01-05T11:49:21.386Z,101445.75
2023-01-05T11:51:54.066Z,101448.84
2023-01-05T11:54:40.694Z,101455.19
2023-01-05T11:57:19.295Z,101453.06
2023-01-05T11:59:51.562Z,101462.28
2023-01-05T12:03:15.060Z,101460.06
2023-01-05T12:05:53.188Z,101461.59
2023-01-05T12:08:33.633Z,101458.31
2023-01-05T12:11:17.397Z,101461.81
2023-01-05T12:14:09.642Z,101467.34
2023-01-05T12:16:49.131Z,101470.06
2023-01-05T12:20:07.463Z,101473.13
2023-01-05T12:23:40.438Z,101470.56
2023-01-05T12:26:27.876Z,101471.28
2023-01-05T12:36:19.315Z,101472.94
2023-01-05T12:39:16.420Z,101471.66
2023-01-05T12:42:23.072Z,101481.28
2023-01-05T12:45:44.207Z,101481.97
2023-01-05T12:48:23.507Z,101482.34
2023-01-05T12:51:07.883Z,101478.72
2023-01-05T12:54:02.812Z,101481.88
2023-01-05T12:56:41.752Z,101476.13
2023-01-05T12:59:23.275Z,101486.94
2023-01-05T13:02:15.364Z,101480.00
2023-01-05T13:04:57.293Z,101480.72
2023-01-05T13:07:50.884Z,101489.78
2023-01-05T13:10:30.695Z,101482.84
2023-01-05T13:13:07.784Z,101482.69
2023-01-05T13:15:45.627Z,101485.03
2023-01-05T13:18:21.404Z,101486.94
2023-01-05T13:20:56.928Z,101476.72
2023-01-05T13:23:33.124Z,101482.56
2023-01-05T13:26:13.251Z,101478.47
2023-01-05T13:28:44.207Z,101479.16
2023-01-05T13:32:01.844Z,101481.53
2023-01-05T13:35:01.017Z,101491.84
2023-01-05T13:38:28.535Z,101484.94
2023-01-05T13:41:40.374Z,101493.59
2023-01-05T13:45:15.687Z,101489.84
2023-01-05T13:48:38.345Z,101494.53
2023-01-05T13:51:54.641Z,101494.88
2023-01-05T13:54:54.943Z,101496.03
2023-01-05T13:57:40.948Z,101495.56
2023-01-05T14:00:25.506Z,101500.38
2023-01-05T14:03:08.207Z,101499.91
2023-01-05T14:05:52.089Z,101501.88
2023-01-05T14:08:29.395Z,101505.06
2023-01-05T14:11:16.420Z,101496.13
2023-01-05T14:13:53.341Z,101499.31
2023-01-05T14:17:11.906Z,101497.19
2023-01-05T14:19:55.319Z,101510.44
2023-01-05T14:22:38.511Z,101504.34
2023-01-05T14:25:55.160Z,101503.03
2023-01-05T14:28:50.132Z,101502.88
2023-01-05T14:31:50.150Z,101499.94
2023-01-05T14:34:23.659Z,101515.50
2023-01-05T14:37:09.263Z,101508.25
2023-01-05T14:39:48.007Z,101515.41
2023-01-05T14:42:37.665Z,101511.28
2023-01-05T14:45:25.834Z,101507.16
2023-01-05T14:47:59.975Z,101517.59
2023-01-05T14:50:38.563Z,101515.16
2023-01-05T14:53:16.686Z,101514.66
2023-01-05T14:56:23.999Z,101517.34
2023-01-05T14:59:20.208Z,101517.22
2023-01-05T15:02:19.488Z,101516.75
2023-01-05T15:07:45.673Z,101519.75
2023-01-05T15:10:52.920Z,101520.78
2023-01-05T15:14:27.216Z,101516.69
2023-01-05T15:17:50.087Z,101528.97
2023-01-05T15:21:01.373Z,101536.09
2023-01-05T15:24:05.522Z,101536.78
2023-01-05T15:27:01.445Z,101539.09
2023-01-05T15:30:06.543Z,101540.63
2023-01-05T15:32:46.054Z,101540.97
2023-01-05T15:35:21.315Z,101540.13
2023-01-05T15:37:54.049Z,101542.13
2023-01-05T15:40:36.240Z,101552.88
2023-01-05T15:43:08.643Z,101550.09
2023-01-05T15:45:43.687Z,101555.69
2023-01-05T15:48:21.394Z,101560.03
2023-01-05T15:50:55.637Z,101556.38
2023-01-05T15:53:36.034Z,101553.06
2023-01-05T15:56:08.745Z,101559.88
2023-01-05T15:58:48.103Z,101559.88
2023-01-05T16:01:19.475Z,101561.84
2023-01-05T16:03:52.554Z,101563.84
2023-01-05T16:06:27.471Z,101568.63
2023-01-05T16:09:11.227Z,101575.88
2023-01-05T16:11:47.497Z,101571.78
2023-01-05T16:14:29.323Z,101580.22
2023-01-05T16:17:07.238Z,101568.47
2023-01-05T16:19:44.165Z,101581.72
2023-01-05T16:22:21.759Z,101583.69
2023-01-05T16:25:05.856Z,101585.19
2023-01-05T16:27:41.915Z,101582.75
2023-01-05T16:30:33.222Z,101572.66
2023-01-05T16:33:12.275Z,101577.78
2023-01-05T16:35:47.468Z,101576.50
2023-01-05T16:38:26.219Z,101584.09
2023-01-05T16:41:25.973Z,101575.16
2023-01-05T16:44:00.498Z,101575.53
2023-01-05T16:46:43.336Z,101578.34
2023-01-05T16:49:43.653Z,101571.06
2023-01-05T16:52:28.870Z,101573.38
2023-01-05T16:55:29.375Z,101573.38
2023-01-05T16:58:03.049Z,101574.53
2023-01-05T17:00:40.968Z,101570.94
2023-01-05T17:03:33.095Z,101580.50
2023-01-05T17:06:04.539Z,101580.88
2023-01-05T17:08:38.284Z,101578.88
2023-01-05T17:11:14.136Z,101578.06
2023-01-05T17:13:48.947Z,101578.38
2023-01-05T17:16:19.817Z,101577.56
2023-01-05T17:18:52.656Z,101582.34
2023-01-05T17:21:27.911Z,101588.31
2023-01-05T17:24:02.005Z,101584.69
2023-01-05T17:26:37.690Z,101589.16
2023-01-05T17:29:12.968Z,101587.50
2023-01-05T17:31:43.419Z,101583.03
2023-01-05T17:34:14.746Z,101580.22
2023-01-05T17:36:46.449Z,101585.84
2023-01-05T17:39:18.194Z,101585.84
2023-01-05T17:41:48.281Z,101580.56
2023-01-05T17:44:26.485Z,101595.44
2023-01-05T17:46:57.163Z,101588.16
2023-01-05T17:54:34.038Z,101586.03
2023-01-05T17:57:04.767Z,101585.22
2023-01-05T17:59:38.200Z,101590.84
2023-01-05T18:02:09.048Z,101591.63
2023-01-05T18:04:39.014Z,101595.28
2023-01-05T18:07:13.713Z,101601.72
2023-01-05T18:09:44.490Z,101603.72
2023-01-05T18:12:15.021Z,101602.06
2023-01-05T18:14:46.808Z,101598.41
2023-01-05T18:17:17.958Z,101601.56
2023-01-05T18:19:48.862Z,101609.50
2023-01-05T18:22:19.341Z,101604.25
2023-01-05T18:24:49.908Z,101601.78
2023-01-05T18:27:20.347Z,101614.97
2023-01-05T18:30:02.108Z,101607.72
2023-01-05T18:32:32.680Z,101612.53
2023-01-05T18:35:07.253Z,101612.53
2023-01-05T18:37:41.519Z,101624.56
2023-01-05T18:40:14.565Z,101616.50
2023-01-05T18:42:45.454Z,101615.66
2023-01-05T18:45:19.462Z,101614.00
2023-01-05T18:48:00.367Z,101616.34
2023-01-05T18:50:30.945Z,101615.84
2023-01-05T18:53:02.082Z,101622.63
2023-01-05T18:55:32.570Z,101622.13
2023-01-05T18:58:02.719Z,101622.47
2023-01-05T19:00:35.765Z,101620.03
2023-01-05T19:03:06.634Z,101625.13
2023-01-05T19:05:42.379Z,101630.25
2023-01-05T19:08:14.134Z,101623.81
2023-01-05T19:10:45.156Z,101626.97
2023-01-05T19:13:15.712Z,101628.59
2023-01-05T19:15:48.696Z,101627.44
2023-01-05T19:18:19.392Z,101626.63
2023-01-05T19:20:58.243Z,101623.81
2023-01-05T19:23:29.382Z,101628.94
2023-01-05T19:26:05.059Z,101631.28
2023-01-05T19:28:38.397Z,101631.91
2023-01-05T19:31:15.408Z,101622.97
2023-01-05T19:33:47.622Z,101630.09
2023-01-05T19:36:21.893Z,101627.94
2023-01-05T19:38:55.153Z,101626.66
2023-01-05T19:41:26.980Z,101629.81
2023-01-05T19:43:59.427Z,101631.63
2023-01-05T19:46:32.428Z,101637.91
2023-01-05T19:49:03.776Z,101627.34
2023-01-05T19:51:37.324Z,101624.41
2023-01-05T19:54:08.091Z,101629.84
2023-01-05T19:56:39.979Z,101631.31
2023-01-05T19:59:22.258Z,101625.56
2023-01-05T20:01:56.770Z,101629.84
2023-01-05T20:04:27.192Z,101633.31
2023-01-05T20:06:58.224Z,101621.59
2023-01-05T20:09:29.123Z,101636.81
2023-01-05T20:12:13.246Z,101629.88
2023-01-05T20:14:45.314Z,101626.56
2023-01-05T20:17:18.888Z,101626.09
2023-01-05T20:19:49.465Z,101620.78
2023-01-05T20:22:20.499Z,101617.84
2023-01-05T20:24:51.782Z,101624.59
2023-01-05T20:27:22.360Z,101619.69
2023-01-05T20:29:57.884Z,101624.44
2023-01-05T20:35:45.156Z,101628.59
2023-01-05T20:38:20.043Z,101618.88
2023-01-05T20:40:56.423Z,101617.50
2023-01-05T20:43:40.611Z,101614.19
2023-01-05T20:46:19.014Z,101621.63
2023-01-05T20:51:57.084Z,101615.03
2023-01-05T20:54:55.714Z,101610.09
2023-01-05T20:57:30.435Z,101611.25
2023-01-05T21:00:07.076Z,101611.25
2023-01-05T21:02:49.574Z,101613.56
2023-01-05T21:05:29.173Z,101605.50
2023-01-05T21:07:59.939Z,101606.63
2023-01-05T21:10:29.883Z,101610.59
2023-01-05T21:13:32.160Z,101608.94
2023-01-05T21:16:00.715Z,101600.88
2023-01-05T21:18:31.505Z,101605.97
2023-01-05T21:21:07.864Z,101605.97
2023-01-05T21:23:39.139Z,101600.22
2023-01-05T21:26:13.645Z,101599.38
2023-01-05T21:28:47.300Z,101597.72
2023-01-05T21:31:20.433Z,101598.88
2023-01-05T21:33:51.320Z,101594.41
2023-01-05T21:36:27.448Z,101589.16
2023-01-05T21:39:04.105Z,101601.00
2023-01-05T21:41:52.266Z,101604.97
2023-01-05T21:44:24.084Z,101598.03
2023-01-05T21:46:54.900Z,101607.13
2023-01-05T21:49:25.283Z,101601.03
2023-01-05T21:52:13.956Z,101604.47
2023-01-05T21:55:01.276Z,101605.47
2023-01-05T21:57:31.646Z,101604.97
2023-01-05T22:00:01.507Z,101609.41
2023-01-05T22:02:32.151Z,101603.00
2023-01-05T22:05:02.453Z,101603.81
2023-01-05T22:07:34.559Z,101610.56
2023-01-05T22:10:05.042Z,101609.75
2023-01-05T22:12:35.189Z,101608.09
2023-01-05T22:15:05.885Z,101607.25
2023-01-05T22:17:36.573Z,101605.63
2023-01-05T22:20:07.700Z,101600.84
2023-01-05T22:22:39.966Z,101603.97
2023-01-05T22:25:10.939Z,101600.69
2023-01-05T22:27:41.169Z,101599.03
2023-01-05T22:30:13.079Z,101601.66
2023-01-05T22:32:43.915Z,101598.69
2023-01-05T22:35:14.359Z,101607.19
2023-01-05T22:37:46.554Z,101603.91
2023-01-05T22:40:17.263Z,101602.25
2023-01-05T22:42:47.730Z,101602.25
2023-01-05T22:45:18.713Z,101607.84
2023-01-05T22:47:49.230Z,101610.19
2023-01-05T22:50:19.664Z,101608.19
2023-01-05T22:52:52.148Z,101607.19
2023-01-05T22:55:21.863Z,101611.47
2023-01-05T22:57:51.873Z,101612.94
2023-01-05T23:00:22.287Z,101606.84
2023-01-05T23:02:52.783Z,101605.53
2023-01-05T23:05:23.211Z,101609.81
2023-01-05T23:07:55.142Z,101612.09
2023-01-05T23:10:28.104Z,101613.56
2023-01-05T23:12:57.854Z,101609.94
2023-01-05T23:15:28.616Z,101609.94
2023-01-05T23:17:59.079Z,101607.47
2023-01-05T23:20:29.462Z,101600.56
2023-01-05T23:23:01.568Z,101610.09
2023-01-05T23:25:31.429Z,101612.06
2023-01-05T23:28:01.190Z,101610.75
2023-01-05T23:30:31.998Z,101615.00
2023-01-05T23:33:02.051Z,101616.16
2023-01-05T23:35:32.221Z,101620.44
2023-01-05T23:38:04.762Z,101616.00
2023-01-05T23:40:35.007Z,101621.88
2023-01-05T23:43:05.423Z,101618.28
2023-01-05T23:45:35.959Z,101611.88
2023-01-05T23:48:06.752Z,101617.78
2023-01-05T23:50:37.618Z,101614.16
2023-01-05T23:53:09.664Z,101616.97
2023-01-05T23:55:40.969Z,101611.66
2023-01-05T23:58:13.038Z,101615.94
